Terminal Aerodrome Forecast
Issued by NWS

Home | Current Version | Previous Version | Text Only | Print | Product List | Glossary On
Versions: 1 2 3 4 5 6 7 8 9 10 11 12 13
885
FTUS42 KTBW 200535
TAFPIE
TAF
KPIE 200535Z 2006/2106 03004KT P6SM SCT250
     FM201400 08005KT P6SM BKN250
     FM202100 29005KT P6SM SCT030 BKN200
     FM210000 01005KT P6SM SCT030 BKN200=

USA.gov is the U.S. government's official web portal to all federal, state and local government web resources and services.